Time;durP1;ratioP1;P1;durP2;ratioP2;P2;SDS_P1;SDS_P2;PMS_P1;PMS_P2;Temp;Humidity;BMP_temperature;BMP_pressure;BME280_temperature;BME280_humidity;BME280_pressure;Samples;Min_cycle;Max_cycle;Signal;HPM_P1;HPM_P2
2022/06/05 00:01:19;;;;;;;;;;;13.00;99.90;;;;;;5114908;28;19937;-77
2022/06/05 00:04:03;;;;;;;;;;;13.00;99.90;;;;;;5114207;28;19911;-78
2022/06/05 00:06:48;;;;;;;;;;;13.00;99.90;;;;;;5114146;28;20322;-77
2022/06/05 00:09:13;;;;;;;;;;;12.90;99.90;;;;;;5114438;28;19912;-77
2022/06/05 00:11:48;;;;;;;;;;;12.90;99.90;;;;;;5114061;28;19911;-77
2022/06/05 00:14:14;;;;;;;;;;;12.90;99.90;;;;;;5114603;28;19934;-78
2022/06/05 00:16:40;;;;;;;;;;;12.80;99.90;;;;;;5114040;28;19908;-77
2022/06/05 00:19:06;;;;;;;;;;;12.80;99.90;;;;;;5114570;28;19908;-77
2022/06/05 00:21:32;;;;;;;;;;;12.80;99.90;;;;;;5113046;28;19926;-77
2022/06/05 00:23:57;;;;;;;;;;;12.80;99.90;;;;;;5114379;28;19908;-77
2022/06/05 00:26:30;;;;;;;;;;;12.90;99.90;;;;;;5115973;28;20006;-78
2022/06/05 00:29:02;;;;;;;;;;;12.80;99.90;;;;;;5130797;28;19915;-78
2022/06/05 00:31:35;;;;;;;;;;;12.80;99.90;;;;;;5118820;28;19941;-75
2022/06/05 00:34:01;;;;;;;;;;;12.80;99.90;;;;;;5115386;28;20395;-78
2022/06/05 00:36:26;;;;;;;;;;;12.90;99.90;;;;;;5113720;28;19908;-76
2022/06/05 00:38:58;;;;;;;;;;;12.80;99.90;;;;;;5113282;28;19908;-78
2022/06/05 00:41:45;;;;;;;;;;;12.90;99.90;;;;;;5116045;28;20014;-77
2022/06/05 00:44:13;;;;;;;;;;;12.90;99.90;;;;;;5114554;28;20015;-78
2022/06/05 00:46:41;;;;;;;;;;;12.90;99.90;;;;;;5113215;28;20358;-78
2022/06/05 00:49:07;;;;;;;;;;;12.80;99.90;;;;;;5113674;28;20347;-78
2022/06/05 00:51:33;;;;;;;;;;;12.80;99.90;;;;;;5113315;28;19943;-77
2022/06/05 00:53:58;;;;;;;;;;;12.90;99.90;;;;;;5114512;28;19953;-79
2022/06/05 00:56:24;;;;;;;;;;;12.80;99.90;;;;;;5095617;28;19930;-78
2022/06/05 00:58:51;;;;;;;;;;;12.90;99.90;;;;;;5113149;28;19908;-78
2022/06/05 01:01:17;;;;;;;;;;;12.80;99.90;;;;;;5113784;28;19948;-78
2022/06/05 01:03:42;;;;;;;;;;;12.80;99.90;;;;;;5113343;28;20377;-78
2022/06/05 01:06:08;;;;;;;;;;;12.80;99.90;;;;;;5113866;28;19908;-78
2022/06/05 01:08:33;;;;;;;;;;;12.80;99.90;;;;;;5112829;28;19908;-78
2022/06/05 01:11:19;;;;;;;;;;;12.60;99.90;;;;;;5113670;28;19912;-78
2022/06/05 01:13:45;;;;;;;;;;;12.70;99.90;;;;;;5115242;28;19908;-78
2022/06/05 01:16:23;;;;;;;;;;;12.70;99.90;;;;;;5129867;28;19914;-78
2022/06/05 01:18:59;;;;;;;;;;;12.70;99.90;;;;;;5116234;28;20701;-78
2022/06/05 01:21:43;;;;;;;;;;;12.60;99.90;;;;;;5114300;28;20478;-78
2022/06/05 01:24:29;;;;;;;;;;;12.70;99.90;;;;;;5113423;28;19907;-78
2022/06/05 01:27:04;;;;;;;;;;;12.60;99.90;;;;;;5112951;28;19956;-78
2022/06/05 01:29:32;;;;;;;;;;;12.70;99.90;;;;;;5113365;28;19919;-78
2022/06/05 01:32:01;;;;;;;;;;;12.60;99.90;;;;;;5112927;28;19908;-79
2022/06/05 01:34:29;;;;;;;;;;;12.60;99.90;;;;;;5113331;28;20349;-78
2022/06/05 01:36:57;;;;;;;;;;;12.60;99.90;;;;;;5112807;28;19947;-78
2022/06/05 01:39:41;;;;;;;;;;;12.70;99.90;;;;;;5113252;28;19915;-78
2022/06/05 01:42:09;;;;;;;;;;;12.60;99.90;;;;;;5112944;28;19916;-78
2022/06/05 01:44:56;;;;;;;;;;;12.60;99.90;;;;;;5112332;28;20332;-77
2022/06/05 01:47:24;;;;;;;;;;;12.60;99.90;;;;;;5113084;28;19958;-78
2022/06/05 01:49:54;;;;;;;;;;;12.60;99.90;;;;;;5112393;28;19911;-78
2022/06/05 01:52:25;;;;;;;;;;;12.60;99.90;;;;;;5112913;28;19912;-78
2022/06/05 01:54:54;;;;;;;;;;;12.60;99.90;;;;;;5112581;28;19907;-77
2022/06/05 01:57:21;;;;;;;;;;;12.60;99.90;;;;;;5094837;28;19912;-78
2022/06/05 01:59:48;;;;;;;;;;;12.60;99.90;;;;;;5112351;28;19907;-78
2022/06/05 02:02:16;;;;;;;;;;;12.60;99.90;;;;;;5127015;28;19923;-77
2022/06/05 02:04:48;;;;;;;;;;;12.60;99.90;;;;;;5121928;28;20387;-77
2022/06/05 02:07:26;;;;;;;;;;;12.60;99.90;;;;;;5114178;28;20324;-78
2022/06/05 02:10:03;;;;;;;;;;;12.60;99.90;;;;;;5112421;28;20361;-78
2022/06/05 02:12:29;;;;;;;;;;;12.60;99.90;;;;;;5113176;28;19915;-78
2022/06/05 02:14:55;;;;;;;;;;;12.60;99.90;;;;;;5112383;28;20537;-78
2022/06/05 02:17:20;;;;;;;;;;;12.60;99.90;;;;;;5112746;28;20031;-77
2022/06/05 02:19:46;;;;;;;;;;;12.60;99.90;;;;;;5112169;28;19927;-78
2022/06/05 02:22:21;;;;;;;;;;;12.70;99.90;;;;;;5112767;28;19923;-78
2022/06/05 02:24:47;;;;;;;;;;;12.70;99.90;;;;;;5112784;28;19908;-78
2022/06/05 02:27:13;;;;;;;;;;;12.70;99.90;;;;;;5112693;28;20006;-77
2022/06/05 02:29:39;;;;;;;;;;;12.70;99.90;;;;;;5112299;28;19914;-77
2022/06/05 02:32:04;;;;;;;;;;;12.70;99.90;;;;;;5094626;28;19914;-77
2022/06/05 02:34:37;;;;;;;;;;;12.70;99.90;;;;;;5112777;28;19915;-77
2022/06/05 02:37:06;;;;;;;;;;;12.70;99.90;;;;;;5112813;28;19947;-78
2022/06/05 02:39:42;;;;;;;;;;;12.70;99.90;;;;;;5094560;28;19926;-78
2022/06/05 02:42:26;;;;;;;;;;;12.60;99.90;;;;;;5112500;28;20428;-77
2022/06/05 02:45:07;;;;;;;;;;;12.50;99.90;;;;;;5113355;28;19958;-77
2022/06/05 02:47:53;;;;;;;;;;;12.50;99.90;;;;;;5120604;28;19931;-78
2022/06/05 02:50:30;;;;;;;;;;;12.50;99.90;;;;;;5112528;28;19994;-78
2022/06/05 02:53:05;;;;;;;;;;;12.50;99.90;;;;;;5117118;28;19919;-77
2022/06/05 02:55:30;;;;;;;;;;;12.50;99.90;;;;;;5116630;28;19987;-77
2022/06/05 02:57:56;;;;;;;;;;;12.50;99.90;;;;;;5115579;28;19962;-77
2022/06/05 03:00:24;;;;;;;;;;;12.60;99.90;;;;;;5116050;28;20006;-77
2022/06/05 03:05:35;;;;;;;;;;;12.50;99.90;;;;;;5116153;28;20004;-77
2022/06/05 03:08:00;;;;;;;;;;;12.50;99.90;;;;;;5115103;28;19957;-77
2022/06/05 03:10:26;;;;;;;;;;;12.50;99.90;;;;;;5115782;28;19908;-77
2022/06/05 03:12:52;;;;;;;;;;;12.50;99.90;;;;;;5115177;28;19907;-77
2022/06/05 03:15:18;;;;;;;;;;;12.50;99.90;;;;;;5115917;28;20412;-78
2022/06/05 03:17:44;;;;;;;;;;;12.40;99.90;;;;;;5114924;28;19915;-77
2022/06/05 03:20:10;;;;;;;;;;;12.50;99.90;;;;;;5115523;28;19977;-77
2022/06/05 03:22:36;;;;;;;;;;;12.50;99.90;;;;;;5115660;28;20015;-77
2022/06/05 03:25:02;;;;;;;;;;;12.40;99.90;;;;;;5115075;28;20383;-77
2022/06/05 03:27:30;;;;;;;;;;;12.40;99.90;;;;;;5115567;28;19908;-77
2022/06/05 03:29:56;;;;;;;;;;;12.30;99.90;;;;;;5114693;28;19908;-78
2022/06/05 03:32:22;;;;;;;;;;;12.30;99.90;;;;;;5115432;28;19908;-78
2022/06/05 03:34:48;;;;;;;;;;;12.30;99.90;;;;;;5124704;28;20000;-78
2022/06/05 03:37:13;;;;;;;;;;;12.30;99.90;;;;;;5127758;28;19912;-78
2022/06/05 03:39:39;;;;;;;;;;;12.30;99.90;;;;;;5116157;28;19912;-76
2022/06/05 03:42:06;;;;;;;;;;;12.30;99.90;;;;;;5114945;28;20292;-78
2022/06/05 03:44:35;;;;;;;;;;;12.20;99.90;;;;;;5114911;28;19908;-78
2022/06/05 03:47:01;;;;;;;;;;;12.20;99.90;;;;;;5114668;28;19903;-77
2022/06/05 03:49:26;;;;;;;;;;;12.20;99.90;;;;;;5115130;28;19914;-78
2022/06/05 03:51:52;;;;;;;;;;;12.10;99.90;;;;;;5114455;28;20003;-78
2022/06/05 03:54:17;;;;;;;;;;;12.10;99.90;;;;;;5115053;28;20006;-78
2022/06/05 03:56:43;;;;;;;;;;;12.10;99.90;;;;;;5114332;28;19915;-78
2022/06/05 03:59:08;;;;;;;;;;;12.10;99.90;;;;;;5114961;28;19938;-78
2022/06/05 04:01:34;;;;;;;;;;;12.10;99.90;;;;;;5114543;28;20319;-78
2022/06/05 04:03:59;;;;;;;;;;;12.10;99.90;;;;;;5114007;28;19912;-78
2022/06/05 04:06:28;;;;;;;;;;;12.10;99.90;;;;;;5114916;28;20256;-78
2022/06/05 04:08:57;;;;;;;;;;;12.10;99.90;;;;;;5114001;28;19908;-78
2022/06/05 04:11:22;;;;;;;;;;;12.00;99.90;;;;;;5114709;28;19907;-78
2022/06/05 04:13:48;;;;;;;;;;;12.10;99.90;;;;;;5095692;28;20011;-78
2022/06/05 04:16:16;;;;;;;;;;;12.10;99.90;;;;;;5114636;28;19943;-78
2022/06/05 04:18:42;;;;;;;;;;;12.00;99.90;;;;;;5114386;28;20040;-76
2022/06/05 04:21:08;;;;;;;;;;;12.00;99.90;;;;;;5125102;28;19946;-79
2022/06/05 04:23:33;;;;;;;;;;;12.10;99.90;;;;;;5127440;28;19908;-78
2022/06/05 04:26:00;;;;;;;;;;;12.10;99.90;;;;;;5114749;28;19934;-78
2022/06/05 04:28:25;;;;;;;;;;;12.10;99.90;;;;;;5113993;28;19912;-79
2022/06/05 04:30:51;;;;;;;;;;;12.20;99.90;;;;;;5113917;28;19908;-78
2022/06/05 04:33:16;;;;;;;;;;;12.30;99.90;;;;;;5114354;28;19991;-78
2022/06/05 04:35:42;;;;;;;;;;;12.30;99.90;;;;;;5095874;28;19908;-77
2022/06/05 04:38:07;;;;;;;;;;;12.20;99.90;;;;;;5114349;28;20410;-78
2022/06/05 04:40:33;;;;;;;;;;;12.30;99.90;;;;;;5114153;28;19908;-77
2022/06/05 04:42:58;;;;;;;;;;;12.30;99.90;;;;;;5113523;28;19933;-78
2022/06/05 04:45:24;;;;;;;;;;;12.30;99.90;;;;;;5113809;28;19999;-78
2022/06/05 04:47:50;;;;;;;;;;;12.30;99.90;;;;;;5113400;28;20361;-78
2022/06/05 04:50:15;;;;;;;;;;;12.30;99.90;;;;;;5113992;28;20008;-79
2022/06/05 04:52:41;;;;;;;;;;;12.20;99.90;;;;;;5114043;28;19908;-78
2022/06/05 04:55:07;;;;;;;;;;;12.10;99.90;;;;;;5095051;28;19908;-78
2022/06/05 04:57:33;;;;;;;;;;;12.20;99.90;;;;;;5113916;28;19931;-78
2022/06/05 04:59:59;;;;;;;;;;;12.10;99.90;;;;;;5113216;28;19908;-78
2022/06/05 05:02:24;;;;;;;;;;;12.00;99.90;;;;;;5113540;28;19920;-79
2022/06/05 05:04:50;;;;;;;;;;;12.10;99.90;;;;;;5113534;28;19907;-78
2022/06/05 05:07:16;;;;;;;;;;;12.00;99.90;;;;;;5124331;28;20426;-78
2022/06/05 05:09:41;;;;;;;;;;;12.00;99.90;;;;;;5127416;28;20018;-78
2022/06/05 05:12:09;;;;;;;;;;;12.00;99.90;;;;;;5113396;28;19961;-77
2022/06/05 05:14:36;;;;;;;;;;;12.00;99.90;;;;;;5113539;28;20010;-77
2022/06/05 05:17:01;;;;;;;;;;;12.00;99.90;;;;;;5113377;28;19908;-77
2022/06/05 05:19:27;;;;;;;;;;;12.00;99.90;;;;;;5113211;28;19912;-78
2022/06/05 05:21:53;;;;;;;;;;;12.00;99.90;;;;;;5112953;28;19965;-78
2022/06/05 05:24:18;;;;;;;;;;;12.00;99.90;;;;;;5113455;28;20268;-78
2022/06/05 05:26:45;;;;;;;;;;;12.00;99.90;;;;;;5095389;28;19908;-78
2022/06/05 05:29:10;;;;;;;;;;;11.90;99.90;;;;;;5112929;28;19907;-78
2022/06/05 05:31:40;;;;;;;;;;;11.90;99.90;;;;;;5113158;28;19931;-78
2022/06/05 05:34:07;;;;;;;;;;;11.90;99.90;;;;;;5112860;28;19912;-78
2022/06/05 05:36:33;;;;;;;;;;;12.00;99.90;;;;;;5113452;28;19908;-78
2022/06/05 05:44:27;;;;;;;;;;;12.10;99.90;;;;;;5113372;28;19915;-78
2022/06/05 05:46:53;;;;;;;;;;;12.20;99.90;;;;;;5112611;28;19908;-78
2022/06/05 05:49:19;;;;;;;;;;;12.10;99.90;;;;;;5113318;28;19908;-78
2022/06/05 05:51:44;;;;;;;;;;;12.10;99.90;;;;;;5113979;28;20365;-78
2022/06/05 05:54:10;;;;;;;;;;;12.10;99.90;;;;;;5127889;28;19916;-77
2022/06/05 05:56:36;;;;;;;;;;;12.10;99.90;;;;;;5119905;28;19915;-77
2022/06/05 05:59:02;;;;;;;;;;;12.10;99.90;;;;;;5112769;28;20368;-78
2022/06/05 06:01:27;;;;;;;;;;;12.10;99.90;;;;;;5113053;28;20258;-77
2022/06/05 06:03:53;;;;;;;;;;;12.10;99.90;;;;;;5112585;28;19908;-77
2022/06/05 06:06:23;;;;;;;;;;;12.20;99.90;;;;;;5113024;28;19999;-78
2022/06/05 06:08:48;;;;;;;;;;;12.10;99.90;;;;;;5112447;28;20262;-76
2022/06/05 06:11:14;;;;;;;;;;;12.10;99.90;;;;;;5112748;28;20006;-77
2022/06/05 06:13:40;;;;;;;;;;;12.10;99.90;;;;;;5112672;28;19956;-78
2022/06/05 06:16:05;;;;;;;;;;;12.10;99.90;;;;;;5112123;28;20386;-77
2022/06/05 06:18:31;;;;;;;;;;;12.20;99.90;;;;;;5112592;28;20288;-78
2022/06/05 06:20:56;;;;;;;;;;;12.30;99.90;;;;;;5115257;28;19920;-77
2022/06/05 06:23:22;;;;;;;;;;;12.20;99.90;;;;;;5116875;28;20417;-77
2022/06/05 06:25:47;;;;;;;;;;;12.30;99.90;;;;;;5116875;28;19907;-77
2022/06/05 06:28:13;;;;;;;;;;;12.30;99.90;;;;;;5116503;28;19908;-77
2022/06/05 06:30:39;;;;;;;;;;;12.40;99.90;;;;;;5116655;28;19908;-78
2022/06/05 06:33:04;;;;;;;;;;;12.40;99.90;;;;;;5097781;28;19907;-78
2022/06/05 06:35:30;;;;;;;;;;;12.50;99.90;;;;;;5116468;28;19912;-78
2022/06/05 06:37:56;;;;;;;;;;;12.50;99.90;;;;;;5117547;28;19956;-77
2022/06/05 06:40:21;;;;;;;;;;;12.50;99.90;;;;;;5134670;28;19923;-78
2022/06/05 06:42:47;;;;;;;;;;;12.50;99.90;;;;;;5116070;28;19961;-78
2022/06/05 06:45:13;;;;;;;;;;;12.50;99.90;;;;;;5115553;28;20254;-78
2022/06/05 06:47:39;;;;;;;;;;;12.50;99.90;;;;;;5116250;28;19911;-78
2022/06/05 06:50:05;;;;;;;;;;;12.50;99.90;;;;;;5115421;28;20268;-78
2022/06/05 06:52:31;;;;;;;;;;;12.50;99.90;;;;;;5115951;28;19922;-78
2022/06/05 06:54:57;;;;;;;;;;;12.50;99.90;;;;;;5115728;28;19908;-77
2022/06/05 06:57:22;;;;;;;;;;;12.50;99.90;;;;;;5115957;28;19998;-78
2022/06/05 06:59:48;;;;;;;;;;;12.40;99.90;;;;;;5116427;28;19908;-78
2022/06/05 07:02:13;;;;;;;;;;;12.40;99.90;;;;;;5115355;28;19923;-78
2022/06/05 07:04:39;;;;;;;;;;;12.40;99.90;;;;;;5097713;28;19912;-77
2022/06/05 07:07:04;;;;;;;;;;;12.40;99.90;;;;;;5115255;28;19908;-77
2022/06/05 07:09:32;;;;;;;;;;;12.40;99.90;;;;;;5115942;28;20288;-78
2022/06/05 07:11:57;;;;;;;;;;;12.40;99.90;;;;;;5114995;28;19908;-77
2022/06/05 07:14:23;;;;;;;;;;;12.40;99.90;;;;;;5115778;28;20405;-78
2022/06/05 07:16:49;;;;;;;;;;;12.50;99.90;;;;;;5115908;28;19984;-78
2022/06/05 07:19:16;;;;;;;;;;;12.50;99.90;;;;;;5114938;28;19968;-77
2022/06/05 07:21:41;;;;;;;;;;;12.50;99.90;;;;;;5115673;28;19916;-78
2022/06/05 07:24:07;;;;;;;;;;;12.60;99.90;;;;;;5114931;28;19994;-80
2022/06/05 07:26:33;;;;;;;;;;;12.60;99.90;;;;;;5118916;28;19951;-79
2022/06/05 07:28:59;;;;;;;;;;;12.40;99.90;;;;;;5114939;28;19914;-80
2022/06/05 07:31:27;;;;;;;;;;;12.40;99.90;;;;;;5114974;28;19930;-80
2022/06/05 07:33:53;;;;;;;;;;;12.40;99.90;;;;;;5115134;28;20276;-81
2022/06/05 07:36:20;;;;;;;;;;;12.30;99.90;;;;;;5114844;28;19915;-80
2022/06/05 07:38:46;;;;;;;;;;;12.30;99.90;;;;;;5115173;28;19932;-81
2022/06/05 07:41:18;;;;;;;;;;;12.30;99.90;;;;;;5114720;28;19916;-82
2022/06/05 07:43:43;;;;;;;;;;;12.40;99.90;;;;;;5115048;28;19915;-83
2022/06/05 07:46:09;;;;;;;;;;;12.40;99.90;;;;;;5114665;28;19908;-83
2022/06/05 07:48:34;;;;;;;;;;;12.40;99.90;;;;;;5115312;28;19953;-82
2022/06/05 07:56:36;;;;;;;;;;;12.30;99.90;;;;;;5114889;28;19915;-81
2022/06/05 07:59:02;;;;;;;;;;;12.30;99.90;;;;;;5114318;28;19907;-80
2022/06/05 08:01:28;;;;;;;;;;;12.50;99.90;;;;;;5114816;28;20008;-80
2022/06/05 08:03:53;;;;;;;;;;;12.40;99.90;;;;;;5114640;28;20296;-80
2022/06/05 08:06:19;;;;;;;;;;;12.40;99.90;;;;;;5113877;28;19954;-80
2022/06/05 08:08:44;;;;;;;;;;;12.50;99.90;;;;;;5114729;28;20318;-81
2022/06/05 08:11:10;;;;;;;;;;;12.60;99.90;;;;;;5114125;28;19915;-81
2022/06/05 08:13:35;;;;;;;;;;;12.60;99.90;;;;;;5114365;28;20006;-81
2022/06/05 08:16:02;;;;;;;;;;;12.70;99.90;;;;;;5113708;28;19908;-80
2022/06/05 08:18:27;;;;;;;;;;;12.60;99.90;;;;;;5114688;28;19954;-81
2022/06/05 08:20:53;;;;;;;;;;;12.60;99.90;;;;;;5114314;28;20346;-81
2022/06/05 08:23:19;;;;;;;;;;;12.50;99.90;;;;;;5113784;28;19923;-80
2022/06/05 08:25:45;;;;;;;;;;;12.50;99.90;;;;;;5114382;28;20414;-80
2022/06/05 08:28:11;;;;;;;;;;;12.50;99.90;;;;;;5113772;28;19926;-81
2022/06/05 08:30:37;;;;;;;;;;;12.50;99.90;;;;;;5114298;28;19907;-81
2022/06/05 08:33:03;;;;;;;;;;;12.50;99.90;;;;;;5113594;28;20045;-80
2022/06/05 08:35:29;;;;;;;;;;;12.40;99.90;;;;;;5114017;28;19995;-80
2022/06/05 08:43:52;;;;;;;;;;;12.40;99.90;;;;;;5113678;28;19958;-80
2022/06/05 08:46:24;;;;;;;;;;;12.50;99.90;;;;;;5109135;28;20325;-80
2022/06/05 08:48:53;;;;;;;;;;;12.50;99.90;;;;;;5095746;28;19950;-80
2022/06/05 08:51:28;;;;;;;;;;;12.40;99.90;;;;;;5113355;28;19908;-80
2022/06/05 08:53:55;;;;;;;;;;;12.40;99.90;;;;;;5113775;28;20006;-81
2022/06/05 08:56:28;;;;;;;;;;;12.40;99.90;;;;;;5113242;28;20376;-81
2022/06/05 08:58:55;;;;;;;;;;;12.40;99.90;;;;;;5113900;28;19908;-81
2022/06/05 09:01:39;;;;;;;;;;;12.40;99.90;;;;;;5112890;28;19908;-81
2022/06/05 09:04:11;;;;;;;;;;;12.40;99.90;;;;;;5113170;28;19912;-81
2022/06/05 09:06:39;;;;;;;;;;;12.50;99.90;;;;;;5113417;28;19908;-81
2022/06/05 09:09:09;;;;;;;;;;;12.50;99.90;;;;;;5113235;28;19914;-81
2022/06/05 09:11:47;;;;;;;;;;;12.60;99.90;;;;;;5113743;28;19961;-81
2022/06/05 09:14:22;;;;;;;;;;;12.60;99.90;;;;;;5112645;28;19915;-81
2022/06/05 09:16:53;;;;;;;;;;;12.70;99.90;;;;;;5112924;28;19915;-81
2022/06/05 09:19:25;;;;;;;;;;;12.70;99.90;;;;;;5112496;28;19911;-79
2022/06/05 09:22:04;;;;;;;;;;;12.80;99.90;;;;;;5113549;28;20349;-80
2022/06/05 09:24:38;;;;;;;;;;;12.80;99.90;;;;;;5113658;28;19918;-80
2022/06/05 09:27:24;;;;;;;;;;;12.90;99.90;;;;;;5112811;28;19907;-82
2022/06/05 09:30:04;;;;;;;;;;;12.70;99.90;;;;;;5071143;28;20020;-82
2022/06/05 09:32:49;;;;;;;;;;;12.70;99.90;;;;;;5113340;28;19991;-82
2022/06/05 09:35:23;;;;;;;;;;;12.60;99.90;;;;;;5112720;28;19908;-81
2022/06/05 09:37:57;;;;;;;;;;;12.50;99.90;;;;;;5113403;28;19908;-81
2022/06/05 09:40:29;;;;;;;;;;;12.50;99.90;;;;;;5112798;28;19904;-81
2022/06/05 09:43:14;;;;;;;;;;;12.50;99.90;;;;;;5113273;28;19965;-81
2022/06/05 09:45:45;;;;;;;;;;;12.50;99.90;;;;;;5094741;28;19918;-79
2022/06/05 09:48:21;;;;;;;;;;;12.50;99.90;;;;;;5112695;28;19908;-80
2022/06/05 09:50:46;;;;;;;;;;;12.40;99.90;;;;;;5112979;28;19908;-80
2022/06/05 09:53:15;;;;;;;;;;;12.30;99.90;;;;;;5112692;28;19908;-81
2022/06/05 09:55:41;;;;;;;;;;;12.40;99.90;;;;;;5117045;28;19912;-81
2022/06/05 09:58:24;;;;;;;;;;;12.50;99.90;;;;;;5116407;28;20434;-79
2022/06/05 10:01:00;;;;;;;;;;;12.50;99.90;;;;;;5117159;28;20006;-78
2022/06/05 10:03:32;;;;;;;;;;;12.30;99.90;;;;;;5116388;28;19916;-80
2022/06/05 10:06:11;;;;;;;;;;;12.30;99.90;;;;;;5117008;28;19915;-79
2022/06/05 10:08:52;;;;;;;;;;;12.40;99.90;;;;;;5117095;28;19973;-80
2022/06/05 10:11:21;;;;;;;;;;;12.40;99.90;;;;;;5115988;28;20263;-80
2022/06/05 10:13:51;;;;;;;;;;;12.40;99.90;;;;;;5116881;28;20374;-81
2022/06/05 10:16:34;;;;;;;;;;;12.50;99.90;;;;;;5116560;28;19915;-80
2022/06/05 10:19:21;;;;;;;;;;;12.30;99.90;;;;;;5118040;28;19919;-81
2022/06/05 10:21:51;;;;;;;;;;;12.20;99.90;;;;;;5116759;28;19967;-80
2022/06/05 10:24:26;;;;;;;;;;;12.20;99.90;;;;;;5116107;28;19915;-80
2022/06/05 10:26:58;;;;;;;;;;;12.20;99.90;;;;;;5126961;28;19915;-79
2022/06/05 10:29:38;;;;;;;;;;;12.10;99.90;;;;;;5129355;28;19915;-80
2022/06/05 10:32:13;;;;;;;;;;;12.00;99.90;;;;;;5117650;28;19911;-80
2022/06/05 10:34:39;;;;;;;;;;;12.10;99.90;;;;;;5117146;28;19998;-81
2022/06/05 10:37:14;;;;;;;;;;;12.10;99.90;;;;;;5116419;28;19965;-81
2022/06/05 10:39:51;;;;;;;;;;;12.10;99.90;;;;;;5116620;28;19915;-80
2022/06/05 10:42:20;;;;;;;;;;;12.10;99.90;;;;;;5115804;28;19920;-80
2022/06/05 10:45:06;;;;;;;;;;;12.10;99.90;;;;;;5116380;28;19998;-80
2022/06/05 10:47:53;;;;;;;;;;;12.20;99.90;;;;;;5097774;28;19908;-81
2022/06/05 10:50:18;;;;;;;;;;;12.10;99.90;;;;;;5115501;28;19953;-80
2022/06/05 10:53:06;;;;;;;;;;;12.20;99.90;;;;;;5116437;28;19912;-81
2022/06/05 10:55:41;;;;;;;;;;;12.20;99.90;;;;;;5116251;28;19977;-80
2022/06/05 10:58:07;;;;;;;;;;;12.10;99.90;;;;;;5115995;28;19961;-77
2022/06/05 11:00:36;;;;;;;;;;;12.10;99.90;;;;;;5115720;28;19908;-80
2022/06/05 11:03:02;;;;;;;;;;;12.30;99.90;;;;;;5115843;28;20311;-81
2022/06/05 11:05:36;;;;;;;;;;;12.30;99.90;;;;;;5114417;28;20419;-81
2022/06/05 11:08:21;;;;;;;;;;;12.30;99.90;;;;;;5115785;28;19921;-82
2022/06/05 11:13:40;;;;;;;;;;;12.40;99.90;;;;;;5115763;28;19914;-80
2022/06/05 11:16:17;;;;;;;;;;;12.20;99.90;;;;;;5115722;28;19914;-80
2022/06/05 11:18:43;;;;;;;;;;;12.30;99.90;;;;;;5115681;28;19922;-80
2022/06/05 11:21:09;;;;;;;;;;;12.30;99.90;;;;;;5125247;28;20307;-77
2022/06/05 11:23:37;;;;;;;;;;;12.30;99.90;;;;;;5137789;28;19914;-80
2022/06/05 11:26:08;;;;;;;;;;;12.40;99.90;;;;;;5120355;28;19908;-79
2022/06/05 11:28:53;;;;;;;;;;;12.30;99.90;;;;;;5115186;28;19915;-80
2022/06/05 11:31:24;;;;;;;;;;;12.20;99.90;;;;;;5114809;28;19950;-79
2022/06/05 11:33:49;;;;;;;;;;;12.10;99.90;;;;;;5115129;28;20408;-80
2022/06/05 11:36:41;;;;;;;;;;;12.10;99.90;;;;;;5096550;28;19954;-80
2022/06/05 11:39:07;;;;;;;;;;;12.10;99.90;;;;;;5110933;28;20307;-79
2022/06/05 11:41:32;;;;;;;;;;;12.00;99.90;;;;;;5114332;28;19945;-81
2022/06/05 11:44:17;;;;;;;;;;;12.00;99.90;;;;;;5097005;28;19907;-80
2022/06/05 11:47:05;;;;;;;;;;;12.00;99.90;;;;;;5114803;28;20357;-80
2022/06/05 11:49:38;;;;;;;;;;;12.10;99.90;;;;;;5103109;28;20364;-79
2022/06/05 11:52:03;;;;;;;;;;;12.00;99.90;;;;;;5114816;28;19946;-80
2022/06/05 11:54:36;;;;;;;;;;;12.10;99.90;;;;;;5114393;28;19908;-80
2022/06/05 11:57:18;;;;;;;;;;;12.00;99.90;;;;;;5114843;28;19999;-80
2022/06/05 11:59:55;;;;;;;;;;;12.00;99.90;;;;;;5114909;28;19958;-80
2022/06/05 12:02:24;;;;;;;;;;;12.10;99.90;;;;;;5114308;28;20006;-80
2022/06/05 12:04:56;;;;;;;;;;;12.00;99.90;;;;;;5114745;28;19912;-80
2022/06/05 12:07:24;;;;;;;;;;;12.00;99.90;;;;;;5114026;28;20337;-80
2022/06/05 12:09:55;;;;;;;;;;;12.00;99.90;;;;;;5114769;28;19914;-80
2022/06/05 12:12:24;;;;;;;;;;;12.00;99.90;;;;;;5114071;28;19926;-80
2022/06/05 12:14:56;;;;;;;;;;;12.00;99.90;;;;;;5114758;28;19915;-80
2022/06/05 12:17:30;;;;;;;;;;;12.00;99.90;;;;;;5113644;28;19908;-80
2022/06/05 12:20:05;;;;;;;;;;;12.00;99.90;;;;;;5114376;28;19926;-80
2022/06/05 12:22:30;;;;;;;;;;;12.00;99.90;;;;;;5113786;28;20076;-80
2022/06/05 12:25:14;;;;;;;;;;;12.10;99.90;;;;;;5114210;28;19965;-80
2022/06/05 12:27:54;;;;;;;;;;;12.20;99.90;;;;;;5114381;28;19912;-80
2022/06/05 12:30:23;;;;;;;;;;;12.10;99.90;;;;;;5113837;28;20271;-79
2022/06/05 12:33:09;;;;;;;;;;;12.10;99.90;;;;;;5114417;28;19908;-80
2022/06/05 12:35:36;;;;;;;;;;;12.10;99.90;;;;;;5112782;28;19929;-81
2022/06/05 12:38:21;;;;;;;;;;;12.10;99.90;;;;;;5114310;28;19965;-80
2022/06/05 12:40:53;;;;;;;;;;;12.00;99.90;;;;;;5114250;28;19987;-80
2022/06/05 12:43:23;;;;;;;;;;;11.90;99.90;;;;;;5114105;28;19915;-80
2022/06/05 12:45:52;;;;;;;;;;;11.90;99.90;;;;;;5114265;28;19912;-80
2022/06/05 12:48:24;;;;;;;;;;;11.90;99.90;;;;;;5113465;28;19908;-80
2022/06/05 12:50:57;;;;;;;;;;;11.80;99.90;;;;;;5113880;28;19912;-80
2022/06/05 12:53:35;;;;;;;;;;;11.90;99.90;;;;;;5113340;28;20010;-79
2022/06/05 12:56:07;;;;;;;;;;;11.90;99.90;;;;;;5113830;28;19954;-81
2022/06/05 12:58:51;;;;;;;;;;;11.80;99.90;;;;;;5113079;28;19915;-81
2022/06/05 13:01:35;;;;;;;;;;;11.80;99.90;;;;;;5113365;28;20292;-78
2022/06/05 13:04:33;;;;;;;;;;;11.80;99.90;;;;;;5113931;28;19914;-83
2022/06/05 13:07:01;;;;;;;;;;;11.80;99.90;;;;;;5068032;28;20281;-81
2022/06/05 13:09:31;;;;;;;;;;;11.90;99.90;;;;;;5112884;28;19915;-80
2022/06/05 13:12:00;;;;;;;;;;;12.00;99.90;;;;;;5113774;28;20274;-81
2022/06/05 13:14:41;;;;;;;;;;;11.90;99.90;;;;;;5113107;28;19999;-80
2022/06/05 13:17:09;;;;;;;;;;;11.90;99.90;;;;;;5113611;28;19908;-81
2022/06/05 13:19:44;;;;;;;;;;;11.90;99.90;;;;;;5112857;28;19920;-81
2022/06/05 13:22:25;;;;;;;;;;;11.90;99.90;;;;;;5113317;28;19961;-81
2022/06/05 13:25:06;;;;;;;;;;;11.80;99.90;;;;;;5113275;28;20330;-81
2022/06/05 13:27:47;;;;;;;;;;;11.90;99.90;;;;;;5112645;28;19912;-80
2022/06/05 13:30:16;;;;;;;;;;;11.90;99.90;;;;;;5113249;28;20376;-81
2022/06/05 13:33:00;;;;;;;;;;;11.90;99.90;;;;;;5112806;28;19908;-80
2022/06/05 13:35:31;;;;;;;;;;;11.90;99.90;;;;;;5112892;28;20007;-80
2022/06/05 13:38:05;;;;;;;;;;;11.80;99.90;;;;;;5113309;28;19907;-80
2022/06/05 13:40:42;;;;;;;;;;;11.90;99.90;;;;;;5112701;28;19916;-81
2022/06/05 13:43:33;;;;;;;;;;;11.80;99.90;;;;;;5095023;28;20010;-82
2022/06/05 13:46:02;;;;;;;;;;;11.80;99.90;;;;;;5103444;28;19944;-81
2022/06/05 13:48:30;;;;;;;;;;;11.80;99.90;;;;;;5112519;28;19998;-81
2022/06/05 13:51:00;;;;;;;;;;;11.80;99.90;;;;;;5113322;28;20006;-81
2022/06/05 13:53:31;;;;;;;;;;;11.80;99.90;;;;;;5113020;28;19912;-79
2022/06/05 13:56:00;;;;;;;;;;;11.90;99.90;;;;;;5113189;28;19908;-83
2022/06/05 13:58:41;;;;;;;;;;;11.90;99.90;;;;;;5112600;28;19953;-81
2022/06/05 14:01:10;;;;;;;;;;;11.80;99.90;;;;;;5113166;28;19908;-82
2022/06/05 14:03:46;;;;;;;;;;;11.80;99.90;;;;;;5112516;28;19962;-81
2022/06/05 14:06:17;;;;;;;;;;;11.90;99.90;;;;;;5113169;28;20008;-82
2022/06/05 14:08:55;;;;;;;;;;;11.90;99.90;;;;;;5112269;28;19961;-81
2022/06/05 14:11:22;;;;;;;;;;;11.90;99.90;;;;;;5094584;28;20285;-78
2022/06/05 14:13:50;;;;;;;;;;;12.00;99.90;;;;;;5112981;28;19961;-81
2022/06/05 14:16:16;;;;;;;;;;;11.90;99.90;;;;;;5112981;28;20403;-81
2022/06/05 14:19:01;;;;;;;;;;;12.00;99.90;;;;;;5112081;28;20456;-81
2022/06/05 14:21:29;;;;;;;;;;;12.00;99.90;;;;;;5111911;28;20390;-82
2022/06/05 14:23:55;;;;;;;;;;;12.00;99.90;;;;;;5113001;28;20010;-83
2022/06/05 14:26:41;;;;;;;;;;;11.90;99.90;;;;;;5112758;28;19957;-80
2022/06/05 14:29:11;;;;;;;;;;;11.90;99.90;;;;;;5117834;28;19929;-87
2022/06/05 14:31:38;;;;;;;;;;;12.00;99.90;;;;;;5133028;28;19915;-86
2022/06/05 14:34:04;;;;;;;;;;;12.10;99.90;;;;;;5109387;28;19908;-85
2022/06/05 14:36:50;;;;;;;;;;;12.00;99.90;;;;;;5120975;28;19935;-85
2022/06/05 14:39:29;;;;;;;;;;;12.20;99.90;;;;;;5114207;28;19908;-85
2022/06/05 14:42:10;;;;;;;;;;;12.10;99.90;;;;;;5115539;28;19916;-84
2022/06/05 14:44:39;;;;;;;;;;;12.00;99.90;;;;;;5115693;28;19908;-84
2022/06/05 14:47:07;;;;;;;;;;;12.00;99.90;;;;;;5098227;28;20328;-85
2022/06/05 14:49:35;;;;;;;;;;;11.90;99.90;;;;;;5115885;28;19908;-84
2022/06/05 14:52:01;;;;;;;;;;;12.00;99.90;;;;;;5116293;28;19908;-84
2022/06/05 14:57:51;;;;;;;;;;;12.10;99.90;;;;;;5115878;28;19915;-84
2022/06/05 15:00:05;;;;;;;;;;;12.10;99.90;;;;;;5116257;28;20378;-85